Time;durP1;ratioP1;P1;durP2;ratioP2;P2;SDS_P1;SDS_P2;PMS_P1;PMS_P2;Temp;Humidity;BMP_temperature;BMP_pressure;BME280_temperature;BME280_humidity;BME280_pressure;Samples;Min_cycle;Max_cycle;Signal;HPM_P1;HPM_P2
2021/03/27 00:00:58;;;;;;;12.63;7.15;;;;;;;11.11;60.40;100184.84;4983516;28;20058;-84
2021/03/27 00:03:38;;;;;;;10.88;7.82;;;;;;;11.06;60.76;100186.88;4983924;28;20159;-85
2021/03/27 00:06:09;;;;;;;10.48;7.43;;;;;;;10.96;61.08;100171.53;4983295;28;20054;-82
2021/03/27 00:09:05;;;;;;;9.38;7.43;;;;;;;10.97;61.15;100171.47;4977103;28;20118;-81
2021/03/27 00:11:56;;;;;;;13.98;7.72;;;;;;;10.89;61.22;100182.44;4988396;28;20051;-80
2021/03/27 00:14:39;;;;;;;10.30;7.88;;;;;;;10.82;61.47;100177.56;4999158;28;20370;-84
2021/03/27 00:17:46;;;;;;;11.73;8.70;;;;;;;10.82;61.76;100181.06;4993935;28;20126;-81
2021/03/27 00:20:17;;;;;;;9.48;7.22;;;;;;;10.79;62.07;100181.22;4986806;28;20067;-79
2021/03/27 00:22:52;;;;;;;11.65;7.70;;;;;;;10.82;62.13;100170.47;4981652;28;20051;-80
2021/03/27 00:25:25;;;;;;;15.98;7.70;;;;;;;10.91;61.82;100171.78;4985891;28;20054;-81
2021/03/27 00:28:10;;;;;;;11.13;8.23;;;;;;;10.94;61.88;100165.47;4981403;28;20057;-82
2021/03/27 00:30:43;;;;;;;13.70;7.97;;;;;;;11.05;61.39;100171.91;4991848;28;20070;-79
2021/03/27 00:33:10;;;;;;;13.90;8.10;;;;;;;11.08;61.61;100155.00;4984389;28;20114;-80
2021/03/27 00:35:43;;;;;;;11.23;7.85;;;;;;;11.11;60.99;100149.53;4984089;28;20065;-79
2021/03/27 00:38:19;;;;;;;11.18;8.10;;;;;;;11.10;61.64;100146.03;4986499;28;20047;-79
2021/03/27 00:40:48;;;;;;;12.88;8.77;;;;;;;11.07;61.54;100142.69;4989526;28;20062;-81
2021/03/27 00:43:26;;;;;;;13.57;8.13;;;;;;;11.06;61.70;100148.91;4987884;28;20533;-84
2021/03/27 00:45:57;;;;;;;12.35;8.52;;;;;;;11.01;61.79;100140.38;4989516;28;20156;-83
2021/03/27 00:48:37;;;;;;;13.48;9.00;;;;;;;11.07;61.35;100140.03;4981630;28;20071;-82
2021/03/27 00:51:12;;;;;;;13.40;8.15;;;;;;;11.11;61.52;100136.28;4986926;28;20042;-82
2021/03/27 00:53:47;;;;;;;13.00;8.90;;;;;;;11.15;61.44;100145.81;4974074;28;20115;-82
2021/03/27 00:56:21;;;;;;;14.00;9.55;;;;;;;11.24;61.12;100137.34;4977088;28;20070;-82
2021/03/27 00:58:50;;;;;;;15.18;9.35;;;;;;;11.25;60.98;100142.56;4976020;28;20102;-85
2021/03/27 01:01:19;;;;;;;15.07;9.02;;;;;;;11.23;61.13;100125.03;4975028;28;20054;-83
2021/03/27 01:03:59;;;;;;;13.25;9.27;;;;;;;11.15;61.54;100122.81;4971544;28;20055;-83
2021/03/27 01:06:30;;;;;;;13.88;9.35;;;;;;;11.15;61.54;100119.31;4972490;28;20062;-82
2021/03/27 01:08:58;;;;;;;;;;;;;;;11.18;61.62;100121.75;4976767;28;20471;-81
2021/03/27 01:11:31;;;;;;;15.40;10.13;;;;;;;11.25;61.01;100116.06;4998896;28;19976;-84
2021/03/27 01:13:59;;;;;;;16.60;10.23;;;;;;;11.30;61.02;100117.63;4983987;28;20451;-80
2021/03/27 01:16:36;;;;;;;14.10;9.95;;;;;;;11.33;60.66;100113.00;4979843;28;20427;-87
2021/03/27 01:19:10;;;;;;;16.52;10.50;;;;;;;11.39;60.46;100117.97;4979533;28;20341;-81
2021/03/27 01:21:40;;;;;;;14.70;9.57;;;;;;;11.42;60.49;100123.09;4992910;28;20054;-84
2021/03/27 01:24:13;;;;;;;16.27;9.80;;;;;;;11.40;60.42;100127.63;4976739;28;20069;-83
2021/03/27 01:26:42;;;;;;;17.27;10.05;;;;;;;11.45;60.30;100140.63;4980826;28;20088;-82
2021/03/27 01:29:13;;;;;;;16.33;10.73;;;;;;;11.42;60.35;100139.00;4981762;28;20097;-84
2021/03/27 01:31:42;;;;;;;14.55;10.48;;;;;;;11.39;60.75;100144.47;4974644;28;20138;-82
2021/03/27 01:34:11;;;;;;;17.63;10.85;;;;;;;11.34;60.99;100138.56;4977549;28;20055;-83
2021/03/27 01:36:56;;;;;;;16.80;10.43;;;;;;;11.28;60.88;100138.91;4986671;28;20471;-86
2021/03/27 01:39:30;;;;;;;16.90;9.80;;;;;;;11.25;60.86;100141.72;4988018;28;20058;-82
2021/03/27 01:42:22;;;;;;;15.73;10.80;;;;;;;11.24;61.11;100142.66;4977278;28;20118;-84
2021/03/27 01:45:32;;;;;;;15.13;10.45;;;;;;;11.19;61.39;100126.13;4979232;28;20066;-87
2021/03/27 01:48:25;;;;;;;15.77;10.77;;;;;;;11.09;61.48;100125.78;4983032;28;20109;-85
2021/03/27 01:50:57;;;;;;;15.07;10.27;;;;;;;11.14;61.79;100130.84;4989597;28;20058;-85
2021/03/27 01:54:03;;;;;;;18.25;10.23;;;;;;;11.13;62.33;100142.38;4999433;28;20122;-87
2021/03/27 01:57:05;;;;;;;14.52;10.25;;;;;;;11.17;62.49;100141.28;4981871;28;20109;-82
2021/03/27 01:59:44;;;;;;;14.50;10.60;;;;;;;11.15;62.41;100140.50;4988409;28;20055;-82
2021/03/27 02:02:14;;;;;;;12.23;9.55;;;;;;;11.16;63.50;100129.81;4986406;28;20073;-84
2021/03/27 02:04:47;;;;;;;15.55;10.75;;;;;;;11.10;64.53;100127.50;4976224;28;20053;-83
2021/03/27 02:07:46;;;;;;;14.40;10.00;;;;;;;11.02;65.96;100129.66;4977251;28;20054;-84
2021/03/27 02:10:25;;;;;;;14.07;9.82;;;;;;;10.92;66.57;100130.25;4960689;28;20102;-82
2021/03/27 02:13:19;;;;;;;12.95;9.55;;;;;;;10.88;66.90;100129.53;4975273;28;20142;-81
2021/03/27 02:16:09;;;;;;;15.75;9.52;;;;;;;10.85;67.21;100127.94;4985423;28;20050;-82
2021/03/27 02:19:15;;;;;;;16.08;9.27;;;;;;;10.78;67.42;100131.84;4974966;28;20062;-82
2021/03/27 02:22:19;;;;;;;13.55;9.15;;;;;;;10.74;67.95;100121.47;4968137;28;20055;-82
2021/03/27 02:25:22;;;;;;;12.07;9.18;;;;;;;10.64;68.57;100129.03;4972340;28;20077;-83
2021/03/27 02:28:04;;;;;;;13.32;8.95;;;;;;;10.65;68.38;100124.59;5003814;28;20054;-81
2021/03/27 02:30:42;;;;;;;12.98;8.73;;;;;;;10.66;68.40;100124.53;4969241;28;20054;-82
2021/03/27 02:33:17;;;;;;;11.10;8.50;;;;;;;10.66;68.46;100131.63;4970322;28;20177;-83
2021/03/27 02:35:52;;;;;;;10.25;8.00;;;;;;;10.67;68.47;100142.13;4972294;28;20059;-79
2021/03/27 02:38:42;;;;;;;10.93;7.95;;;;;;;10.71;68.11;100145.44;4966164;28;20558;-80
2021/03/27 02:41:28;;;;;;;10.45;6.95;;;;;;;10.76;67.87;100139.00;4968512;28;20048;-82
2021/03/27 02:44:00;;;;;;;10.93;7.25;;;;;;;10.87;67.49;100144.59;4973949;28;20074;-82
2021/03/27 02:46:32;;;;;;;9.88;6.20;;;;;;;10.98;66.65;100140.53;4968775;28;20065;-85
2021/03/27 02:49:25;;;;;;;7.95;5.78;;;;;;;11.19;65.58;100145.53;4976447;28;20418;-82
2021/03/27 02:52:20;;;;;;;7.65;5.85;;;;;;;11.37;64.44;100148.13;4983897;28;20057;-82
2021/03/27 02:55:10;;;;;;;9.10;5.93;;;;;;;11.44;64.57;100136.28;4955987;28;20085;-83
2021/03/27 02:57:49;;;;;;;7.30;5.28;;;;;;;11.42;64.48;100154.91;4981768;28;20241;-85
2021/03/27 03:00:27;;;;;;;9.75;6.20;;;;;;;11.47;64.71;100176.75;4984271;28;20094;-82
2021/03/27 03:03:14;;;;;;;10.07;6.18;;;;;;;11.51;65.08;100186.22;4984901;28;20042;-82
2021/03/27 03:05:46;;;;;;;8.82;6.45;;;;;;;11.45;65.91;100197.19;4989032;28;20048;-87
2021/03/27 03:08:37;;;;;;;10.90;6.43;;;;;;;11.45;64.84;100205.13;4981889;28;20078;-79
2021/03/27 03:11:20;;;;;;;12.25;6.40;;;;;;;11.35;65.50;100209.19;4978329;28;20058;-81
2021/03/27 03:13:58;;;;;;;8.45;6.57;;;;;;;11.33;65.19;100226.16;4984398;28;20190;-84
2021/03/27 03:16:30;;;;;;;9.15;5.72;;;;;;;11.27;64.40;100239.72;4985624;28;20127;-81
2021/03/27 03:19:09;;;;;;;7.25;5.80;;;;;;;11.19;64.54;100242.75;4987095;28;20030;-82
2021/03/27 03:21:43;;;;;;;8.05;5.13;;;;;;;11.16;64.66;100238.47;4992087;28;20119;-86
2021/03/27 03:24:34;;;;;;;7.43;4.80;;;;;;;11.09;64.19;100252.13;4988318;28;20093;-80
2021/03/27 03:27:32;;;;;;;7.35;4.13;;;;;;;10.99;64.25;100267.63;4988090;28;20050;-82
2021/03/27 03:30:45;;;;;;;6.03;4.20;;;;;;;10.99;64.50;100294.13;4983739;28;20081;-80
2021/03/27 03:33:46;;;;;;;2.72;1.75;;;;;;;10.77;62.85;100304.94;4938187;28;20086;-82
2021/03/27 03:36:34;;;;;;;0.88;0.80;;;;;;;10.59;61.49;100329.66;4974996;28;20065;-83
2021/03/27 03:39:16;;;;;;;1.25;0.77;;;;;;;10.39;61.50;100330.59;4980144;28;20391;-82
2021/03/27 03:41:52;;;;;;;2.80;0.80;;;;;;;10.22;61.92;100329.69;4990137;28;20061;-80
2021/03/27 03:44:44;;;;;;;0.77;0.60;;;;;;;10.08;61.70;100332.91;4991243;28;20055;-80
2021/03/27 03:47:54;;;;;;;1.25;0.43;;;;;;;9.94;61.60;100359.13;4989018;28;20079;-80
2021/03/27 03:50:23;;;;;;;3.05;0.52;;;;;;;9.88;60.03;100373.50;4990596;28;20050;-83
2021/03/27 03:53:00;;;;;;;1.20;0.32;;;;;;;9.71;59.91;100373.41;4987436;28;21198;-86
2021/03/27 03:55:57;;;;;;;0.15;0.15;;;;;;;9.57;60.26;100389.84;4973784;28;20057;-80
2021/03/27 03:58:43;;;;;;;0.30;0.30;;;;;;;9.53;60.74;100400.63;4978450;28;20119;-79
2021/03/27 04:01:33;;;;;;;0.30;0.30;;;;;;;9.48;59.55;100391.09;4989203;28;20055;-85
2021/03/27 04:04:21;;;;;;;0.28;0.28;;;;;;;9.40;59.41;100409.06;4992945;28;20045;-82
2021/03/27 04:06:52;;;;;;;0.75;0.20;;;;;;;9.40;59.23;100416.16;5010230;28;20034;-87
2021/03/27 04:09:27;;;;;;;0.68;0.40;;;;;;;9.34;59.00;100419.03;4990291;28;20042;-81
2021/03/27 04:12:03;;;;;;;0.25;0.25;;;;;;;9.31;58.87;100433.22;4960266;28;20146;-82
2021/03/27 04:15:04;;;;;;;0.43;0.20;;;;;;;9.25;59.42;100438.78;4990290;28;20054;-85
2021/03/27 04:17:54;;;;;;;0.30;0.30;;;;;;;9.18;58.84;100450.50;4971885;28;20062;-86
2021/03/27 04:20:46;;;;;;;0.60;0.30;;;;;;;9.14;58.58;100470.88;4969119;28;20047;-79
2021/03/27 04:23:36;;;;;;;0.60;0.22;;;;;;;9.12;58.71;100478.03;4989565;28;20118;-84
2021/03/27 04:26:32;;;;;;;0.98;0.30;;;;;;;9.17;58.08;100487.53;4988651;28;20065;-80
2021/03/27 04:29:23;;;;;;;0.52;0.30;;;;;;;9.15;58.36;100485.81;4990904;28;20093;-78
2021/03/27 04:32:22;;;;;;;0.28;0.20;;;;;;;9.07;58.33;100495.84;4990870;28;20077;-80
2021/03/27 04:35:18;;;;;;;1.23;0.20;;;;;;;9.01;58.84;100495.22;4975263;28;20082;-83
2021/03/27 04:37:53;;;;;;;1.63;0.30;;;;;;;8.90;59.04;100516.75;4985728;28;20050;-79
2021/03/27 04:40:31;;;;;;;0.20;0.20;;;;;;;8.85;58.42;100521.34;4994397;28;20101;-80
2021/03/27 04:43:12;;;;;;;0.55;0.30;;;;;;;8.79;58.36;100535.66;4985378;28;20193;-81
2021/03/27 04:45:46;;;;;;;0.60;0.30;;;;;;;8.86;58.38;100540.69;4975846;28;20058;-82
2021/03/27 04:48:16;;;;;;;0.50;0.20;;;;;;;8.82;58.74;100545.22;4977909;28;20078;-83
2021/03/27 04:51:16;;;;;;;0.38;0.20;;;;;;;8.67;59.06;100554.56;4974080;28;20066;-82
2021/03/27 04:54:05;;;;;;;0.77;0.28;;;;;;;8.56;59.98;100572.59;4982753;28;20170;-83
2021/03/27 04:56:43;;;;;;;0.40;0.20;;;;;;;8.48;60.06;100579.94;4975593;28;20145;-81
2021/03/27 04:59:42;;;;;;;1.17;0.20;;;;;;;8.38;60.62;100592.56;4981358;28;20074;-82
2021/03/27 05:02:14;;;;;;;0.20;0.20;;;;;;;8.29;60.67;100602.56;4984002;28;20982;-86
2021/03/27 05:04:55;;;;;;;2.15;0.30;;;;;;;8.30;60.14;100594.59;4995375;28;20055;-81
2021/03/27 05:08:08;;;;;;;0.50;0.20;;;;;;;8.21;59.75;100609.84;4977629;28;20876;-80
2021/03/27 05:10:59;;;;;;;3.85;0.50;;;;;;;8.18;59.90;100625.81;4881425;29;20053;-80
2021/03/27 05:13:36;;;;;;;1.80;0.52;;;;;;;8.06;60.04;100641.13;4873458;29;20076;-79
2021/03/27 05:16:22;;;;;;;1.10;0.30;;;;;;;7.99;60.26;100647.50;4952027;28;20074;-81
2021/03/27 05:19:09;;;;;;;1.38;0.20;;;;;;;7.95;59.54;100651.16;4976367;28;20625;-79
2021/03/27 05:21:35;;;;;;;0.95;0.32;;;;;;;7.97;59.65;100665.16;4974195;28;20046;-79
2021/03/27 05:24:31;;;;;;;0.90;0.35;;;;;;;7.94;59.82;100665.25;4976980;28;20051;-82
2021/03/27 05:27:34;;;;;;;0.35;0.20;;;;;;;7.85;60.33;100680.50;4967113;28;20211;-82
2021/03/27 05:30:18;;;;;;;1.42;0.40;;;;;;;7.85;60.77;100689.28;4973464;28;20158;-81
2021/03/27 05:32:57;;;;;;;2.38;0.40;;;;;;;7.87;60.37;100689.25;4978333;28;20138;-82
2021/03/27 05:35:30;;;;;;;3.30;0.40;;;;;;;7.98;59.87;100692.41;4977930;28;20121;-82
2021/03/27 05:38:12;;;;;;;2.08;0.55;;;;;;;8.02;59.80;100702.81;4986436;28;20042;-79
2021/03/27 05:40:55;;;;;;;2.40;0.30;;;;;;;8.12;59.73;100702.50;4989596;28;20509;-79
2021/03/27 05:43:37;;;;;;;2.78;0.35;;;;;;;8.21;59.50;100713.59;4988466;28;20134;-79
2021/03/27 05:46:28;;;;;;;1.55;0.47;;;;;;;8.28;59.19;100719.56;4980632;28;20069;-80
2021/03/27 05:49:22;;;;;;;1.05;0.35;;;;;;;8.16;59.28;100726.09;4974301;28;20050;-83
2021/03/27 05:51:54;;;;;;;1.88;0.30;;;;;;;8.09;59.67;100740.38;4979148;28;20081;-82
2021/03/27 05:54:41;;;;;;;2.00;0.60;;;;;;;8.16;59.82;100741.06;4971014;28;20054;-82
2021/03/27 05:57:40;;;;;;;0.52;0.30;;;;;;;8.23;59.23;100753.13;4978820;28;20138;-83
2021/03/27 06:00:34;;;;;;;2.25;0.40;;;;;;;8.24;59.17;100760.13;4938191;28;20110;-81
2021/03/27 06:03:46;;;;;;;2.50;1.20;;;;;;;8.18;59.87;100771.75;4953100;28;20051;-80
2021/03/27 06:06:39;;;;;;;1.38;0.30;;;;;;;8.18;60.45;100774.41;4971733;28;20121;-81
2021/03/27 06:09:35;;;;;;;2.30;0.40;;;;;;;8.19;60.08;100778.75;4975071;28;20123;-81
2021/03/27 06:12:23;;;;;;;1.08;0.40;;;;;;;8.25;60.21;100785.59;4974975;28;20059;-83
2021/03/27 06:15:08;;;;;;;3.35;1.40;;;;;;;8.27;60.11;100778.50;4964185;28;20162;-82
2021/03/27 06:17:52;;;;;;;0.60;0.40;;;;;;;8.26;60.38;100785.56;4978364;28;20435;-83
2021/03/27 06:20:21;;;;;;;0.85;0.30;;;;;;;8.32;60.46;100797.75;4970596;28;20055;-86
2021/03/27 06:23:26;;;;;;;1.60;0.40;;;;;;;8.35;60.00;100808.19;4978463;28;20055;-83
2021/03/27 06:26:11;;;;;;;0.55;0.40;;;;;;;8.42;58.54;100810.59;4992416;28;20127;-82
2021/03/27 06:29:06;;;;;;;2.15;0.50;;;;;;;8.44;58.24;100818.47;4987133;28;20084;-82
2021/03/27 06:31:47;;;;;;;3.03;0.50;;;;;;;8.61;56.86;100810.88;4971099;28;20051;-80
2021/03/27 06:34:40;;;;;;;2.85;0.60;;;;;;;8.78;55.79;100819.13;4969953;28;20126;-79
2021/03/27 06:37:22;;;;;;;1.30;0.55;;;;;;;8.76;56.11;100818.31;4987849;28;20148;-80
2021/03/27 06:39:48;;;;;;;2.00;0.40;;;;;;;8.76;56.35;100825.34;4990238;28;20051;-81
2021/03/27 06:42:45;;;;;;;1.60;0.52;;;;;;;8.77;56.35;100837.66;4975200;28;20098;-81
2021/03/27 06:45:36;;;;;;;1.13;0.47;;;;;;;8.72;56.07;100843.06;4976668;28;20047;-84
2021/03/27 06:48:38;;;;;;;0.85;0.50;;;;;;;8.71;56.75;100853.69;4983925;28;20083;-82
2021/03/27 06:51:26;;;;;;;0.77;0.30;;;;;;;8.66;56.83;100845.91;4959388;28;20050;-86
2021/03/27 06:54:04;;;;;;;2.45;0.52;;;;;;;8.56;57.71;100844.47;4986847;28;20518;-81
2021/03/27 06:56:48;;;;;;;3.33;0.80;;;;;;;8.51;57.56;100841.09;4980336;28;20074;-82
2021/03/27 06:59:55;;;;;;;2.13;0.70;;;;;;;8.41;57.28;100856.38;4979526;28;20083;-83
2021/03/27 07:02:52;;;;;;;5.45;0.93;;;;;;;9.91;52.60;100846.00;4987750;28;20157;-83
2021/03/27 07:05:53;;;;;;;1.48;0.65;;;;;;;12.08;47.32;100855.56;4988476;28;20058;-83
2021/03/27 07:08:44;;;;;;;2.80;0.90;;;;;;;13.63;42.73;100858.53;4989510;28;20436;-84
2021/03/27 07:11:13;;;;;;;2.88;0.60;;;;;;;13.95;40.57;100850.66;4975803;28;20144;-82
2021/03/27 07:14:10;;;;;;;1.35;0.60;;;;;;;13.25;41.56;100849.00;4993795;28;20089;-83
2021/03/27 07:16:52;;;;;;;2.88;0.70;;;;;;;12.32;43.09;100842.06;4991016;28;20034;-82
2021/03/27 07:19:49;;;;;;;4.57;1.05;;;;;;;12.49;43.95;100850.09;4989249;28;20055;-81
2021/03/27 07:22:45;;;;;;;2.30;0.68;;;;;;;12.96;42.31;100859.28;4981028;28;20051;-81
2021/03/27 07:25:20;;;;;;;4.28;0.80;;;;;;;12.95;42.34;100859.34;4961699;28;20590;-86
2021/03/27 07:28:18;;;;;;;5.28;1.02;;;;;;;12.55;42.80;100860.44;4976812;28;20110;-81
2021/03/27 07:31:09;;;;;;;1.05;0.55;;;;;;;12.27;43.09;100864.41;4983026;28;20054;-85
2021/03/27 07:33:42;;;;;;;2.33;0.80;;;;;;;11.72;43.93;100860.69;4970387;28;20050;-80
2021/03/27 07:36:29;;;;;;;5.72;1.00;;;;;;;11.29;44.66;100872.28;4972943;28;20114;-87
2021/03/27 07:39:20;;;;;;;4.95;1.02;;;;;;;10.70;45.05;100877.41;4979181;28;20047;-81
2021/03/27 07:42:15;;;;;;;2.88;1.05;;;;;;;10.40;46.20;100887.38;4986970;28;20038;-82
2021/03/27 07:44:47;;;;;;;3.65;1.00;;;;;;;10.10;47.11;100889.38;5000571;28;20115;-84
2021/03/27 07:47:33;;;;;;;4.38;1.02;;;;;;;9.72;47.60;100893.41;4985165;28;20158;-81
2021/03/27 07:50:25;;;;;;;3.67;1.10;;;;;;;9.41;48.76;100897.13;4981645;28;20055;-83
2021/03/27 07:53:09;;;;;;;3.60;1.30;;;;;;;9.26;48.86;100897.66;4973024;28;20064;-84
2021/03/27 07:55:50;;;;;;;4.75;1.45;;;;;;;9.07;48.74;100884.19;4976428;28;20146;-85
2021/03/27 07:58:31;;;;;;;3.80;1.20;;;;;;;9.15;48.60;100882.13;4972778;28;20071;-82
2021/03/27 08:01:24;;;;;;;5.13;1.67;;;;;;;9.15;48.55;100889.19;4995651;28;20114;-85
2021/03/27 08:04:36;;;;;;;5.13;1.13;;;;;;;9.18;48.61;100885.59;4978171;28;20070;-80
2021/03/27 08:07:07;;;;;;;6.22;1.30;;;;;;;9.20;48.21;100900.50;4976526;28;20058;-80
2021/03/27 08:10:11;;;;;;;3.78;1.33;;;;;;;9.17;48.01;100894.44;4987768;28;20148;-84
2021/03/27 08:13:01;;;;;;;3.95;1.10;;;;;;;9.28;47.58;100897.59;4993015;28;20058;-84
2021/03/27 08:15:55;;;;;;;3.83;1.25;;;;;;;9.31;47.61;100897.47;4977677;28;20522;-82
2021/03/27 08:18:33;;;;;;;4.03;1.10;;;;;;;9.18;47.54;100902.31;4986067;28;20061;-82
2021/03/27 08:21:02;;;;;;;3.33;1.30;;;;;;;9.14;48.13;100903.31;4993699;28;20097;-82
2021/03/27 08:23:50;;;;;;;4.07;1.20;;;;;;;9.29;50.17;100910.75;5015248;28;20047;-80
2021/03/27 08:26:39;;;;;;;6.43;1.70;;;;;;;9.29;48.00;100921.31;4992564;28;20138;-86
2021/03/27 08:29:43;;;;;;;4.75;1.50;;;;;;;9.27;48.34;100917.88;4992286;28;20050;-83
2021/03/27 08:32:39;;;;;;;7.13;1.20;;;;;;;9.31;48.07;100930.06;4971181;28;20054;-83
2021/03/27 08:35:16;;;;;;;3.78;1.00;;;;;;;9.29;48.17;100926.59;4990827;28;20047;-80
2021/03/27 08:38:16;;;;;;;5.45;1.10;;;;;;;9.23;48.68;100928.59;4990158;28;20051;-81
2021/03/27 08:40:58;;;;;;;5.35;1.00;;;;;;;9.23;48.66;100920.66;4978994;28;20063;-81
2021/03/27 08:44:11;;;;;;;4.50;0.88;;;;;;;9.37;49.10;100923.72;4972545;28;20047;-80
2021/03/27 08:46:46;;;;;;;5.53;1.38;;;;;;;9.63;47.93;100922.81;4964012;28;20858;-83
2021/03/27 08:49:50;;;;;;;5.00;1.00;;;;;;;9.91;46.46;100933.31;4979591;28;20059;-80
2021/03/27 08:52:44;;;;;;;4.45;1.20;;;;;;;10.09;46.01;100930.84;4989341;28;20051;-82
2021/03/27 08:55:25;;;;;;;5.28;1.15;;;;;;;10.16;45.91;100926.19;4974933;28;20075;-83
2021/03/27 08:58:17;;;;;;;4.97;1.23;;;;;;;10.09;45.80;100936.13;4974398;28;20066;-81
2021/03/27 09:01:22;;;;;;;4.70;1.20;;;;;;;10.00;46.48;100933.84;4971486;28;20087;-83
2021/03/27 09:04:10;;;;;;;6.65;1.25;;;;;;;9.98;46.23;100943.59;4982811;28;20059;-82
2021/03/27 09:07:14;;;;;;;4.50;1.30;;;;;;;9.94;45.75;100941.97;4979926;28;20047;-84
2021/03/27 09:10:08;;;;;;;4.40;1.10;;;;;;;9.99;45.93;100955.91;4982798;28;20118;-82
2021/03/27 09:12:43;;;;;;;5.93;1.40;;;;;;;9.98;46.22;100954.19;4984098;28;20075;-83
2021/03/27 09:15:37;;;;;;;7.00;1.40;;;;;;;9.94;47.26;100928.75;4987058;28;20061;-84
2021/03/27 09:18:26;;;;;;;4.22;1.23;;;;;;;10.02;47.10;100942.59;4978925;28;20079;-84
2021/03/27 09:21:14;;;;;;;5.50;0.80;;;;;;;10.01;47.00;100932.91;4975400;28;20083;-83
2021/03/27 09:23:55;;;;;;;5.22;1.10;;;;;;;10.09;47.18;100944.06;4982393;28;20114;-83
2021/03/27 09:26:32;;;;;;;6.60;1.33;;;;;;;10.26;47.82;100943.50;4975787;28;20086;-80
2021/03/27 09:29:27;;;;;;;3.95;1.17;;;;;;;10.52;46.95;100951.34;4961628;28;20062;-81
2021/03/27 09:32:06;;;;;;;7.43;1.02;;;;;;;10.63;46.30;100963.31;4976248;28;20109;-81
2021/03/27 09:34:49;;;;;;;4.80;0.88;;;;;;;10.75;46.00;100971.63;4972167;28;20073;-86
2021/03/27 09:37:49;;;;;;;9.10;1.10;;;;;;;10.74;46.67;100972.56;4975707;28;20051;-83
2021/03/27 09:40:30;;;;;;;6.75;1.00;;;;;;;10.78;46.61;100960.94;4974936;28;20082;-84
2021/03/27 09:43:11;;;;;;;4.97;0.88;;;;;;;10.73;47.31;100976.13;4975061;28;20086;-83
2021/03/27 09:46:03;;;;;;;4.50;1.05;;;;;;;10.72;47.30;100970.88;4975250;28;20086;-83
2021/03/27 09:48:41;;;;;;;6.53;1.00;;;;;;;10.86;45.54;100976.53;4979955;28;20122;-84
2021/03/27 09:51:26;;;;;;;5.18;1.00;;;;;;;10.87;46.01;100967.63;4972089;28;20558;-83
2021/03/27 09:54:19;;;;;;;2.50;0.95;;;;;;;11.07;45.37;100972.16;4989162;28;20071;-84
2021/03/27 09:57:14;;;;;;;4.47;0.98;;;;;;;11.29;45.28;100973.03;4989785;28;20076;-79
2021/03/27 09:59:51;;;;;;;6.38;1.05;;;;;;;11.47;45.04;100974.94;4978255;28;20070;-81
2021/03/27 10:02:35;;;;;;;5.32;0.82;;;;;;;11.63;43.78;100966.34;4991225;28;20078;-84
2021/03/27 10:05:15;;;;;;;7.78;1.30;;;;;;;11.54;43.05;100960.47;4994733;28;20110;-82
2021/03/27 10:07:55;;;;;;;2.55;0.88;;;;;;;11.64;43.15;100979.53;4992975;28;20059;-84
2021/03/27 10:10:38;;;;;;;7.00;1.23;;;;;;;11.75;43.44;100979.09;4994866;28;20062;-86
2021/03/27 10:13:42;;;;;;;6.32;1.15;;;;;;;11.72;43.90;100985.38;4989939;28;20066;-83
2021/03/27 10:16:22;;;;;;;5.75;1.30;;;;;;;11.47;44.87;100988.19;4991669;28;20059;-85
2021/03/27 10:19:13;;;;;;;5.25;1.10;;;;;;;11.52;45.48;100999.47;4991936;28;20070;-83
2021/03/27 10:22:01;;;;;;;8.60;1.20;;;;;;;11.80;44.87;101015.16;4991815;28;20067;-81
2021/03/27 10:24:41;;;;;;;5.18;0.70;;;;;;;12.16;45.07;101027.75;4984327;28;20351;-81
2021/03/27 10:27:36;;;;;;;7.22;1.15;;;;;;;12.14;46.12;101017.19;4980490;28;20050;-82
2021/03/27 10:30:15;;;;;;;5.20;1.20;;;;;;;12.08;47.20;101029.88;4978835;28;20133;-81
2021/03/27 10:32:44;;;;;;;3.97;0.82;;;;;;;11.98;47.41;101031.19;4970065;28;20149;-83
2021/03/27 10:35:41;;;;;;;2.13;0.57;;;;;;;11.89;47.44;101041.28;4976291;28;20496;-83
2021/03/27 10:38:35;;;;;;;3.03;0.80;;;;;;;11.74;48.07;101046.34;4975390;28;20169;-84
2021/03/27 10:41:10;;;;;;;6.38;0.70;;;;;;;11.83;48.93;101038.88;4979691;28;20055;-85
2021/03/27 10:43:39;;;;;;;3.28;0.85;;;;;;;11.90;48.57;101048.31;4984442;28;20050;-80
2021/03/27 10:46:14;;;;;;;4.80;1.10;;;;;;;11.86;47.13;101043.19;4969206;28;20085;-80
2021/03/27 10:48:40;;;;;;;4.25;0.80;;;;;;;12.10;46.11;101051.94;4987081;28;20059;-83
2021/03/27 10:51:27;;;;;;;5.03;0.95;;;;;;;12.33;46.13;101046.47;4970090;28;20062;-85
2021/03/27 10:54:20;;;;;;;3.65;1.10;;;;;;;12.52;46.68;101046.53;4981673;28;20058;-80
2021/03/27 10:57:17;;;;;;;4.85;0.75;;;;;;;12.63;45.31;101049.56;4980414;28;20114;-81
2021/03/27 11:00:01;;;;;;;2.30;0.90;;;;;;;12.62;44.18;101054.00;4975317;28;20055;-81
2021/03/27 11:03:05;;;;;;;4.35;1.02;;;;;;;12.29;45.43;101055.50;4962778;28;20086;-80
2021/03/27 11:05:59;;;;;;;4.70;0.93;;;;;;;12.24;45.80;101058.38;4975970;28;20055;-83
2021/03/27 11:09:05;;;;;;;7.18;1.02;;;;;;;12.19;44.99;101060.34;4985609;28;20050;-79
2021/03/27 11:11:34;;;;;;;5.15;1.20;;;;;;;12.08;44.95;101067.06;4976681;28;20135;-85
2021/03/27 11:14:31;;;;;;;6.22;1.05;;;;;;;12.23;44.42;101075.22;4978354;28;20058;-82
2021/03/27 11:17:39;;;;;;;5.82;1.15;;;;;;;12.34;44.21;101064.13;4980052;28;20081;-84
2021/03/27 11:21:00;;;;;;;9.55;1.40;;;;;;;12.30;44.01;101075.81;4986878;28;20142;-83
2021/03/27 11:23:50;;;;;;;3.85;1.00;;;;;;;12.53;44.17;101073.03;4937941;29;20422;-82
2021/03/27 11:26:35;;;;;;;8.50;1.23;;;;;;;12.56;44.53;101070.25;4975786;28;20148;-81
2021/03/27 11:29:29;;;;;;;3.78;1.00;;;;;;;12.65;43.97;101063.63;4974787;28;20051;-85
2021/03/27 11:32:07;;;;;;;10.88;1.40;;;;;;;12.98;42.71;101075.41;4971109;28;20051;-81
2021/03/27 11:34:36;;;;;;;212.90;28.42;;;;;;;13.05;41.00;101064.50;4970555;28;20062;-82
2021/03/27 11:37:25;;;;;;;113.53;18.00;;;;;;;12.78;41.31;101075.44;4970429;28;20055;-79
2021/03/27 11:40:16;;;;;;;21.95;3.97;;;;;;;12.57;42.40;101074.63;4981665;28;20474;-80
2021/03/27 11:43:13;;;;;;;26.52;5.72;;;;;;;12.58;44.76;101083.47;4993395;28;20051;-80
2021/03/27 11:45:46;;;;;;;13.77;2.92;;;;;;;12.61;43.50;101088.63;4986421;28;20439;-82
2021/03/27 11:48:20;;;;;;;7.97;2.20;;;;;;;12.52;43.70;101091.69;4993018;28;20046;-79
2021/03/27 11:51:02;;;;;;;15.90;2.50;;;;;;;12.43;43.95;101094.75;4989945;28;20074;-83
2021/03/27 11:53:53;;;;;;;9.50;1.95;;;;;;;12.30;41.44;101100.56;4986582;28;20054;-81
2021/03/27 11:56:34;;;;;;;10.57;1.58;;;;;;;12.02;41.91;101094.72;4987919;28;20057;-81
2021/03/27 12:02:26;;;;;;;10.13;2.65;;;;;;;11.75;42.28;101098.47;4975128;28;20075;-82
2021/03/27 12:05:20;;;;;;;9.82;2.20;;;;;;;12.01;42.90;101095.63;4971909;28;20082;-82
2021/03/27 12:07:56;;;;;;;3.72;1.10;;;;;;;12.23;40.77;101099.13;4970873;28;20212;-82
2021/03/27 12:10:22;;;;;;;4.68;1.08;;;;;;;12.28;40.53;101109.53;4974149;28;20083;-84
2021/03/27 12:13:05;;;;;;;2.55;0.88;;;;;;;12.11;41.07;101107.63;4959647;28;20135;-81
2021/03/27 12:15:46;;;;;;;6.28;0.90;;;;;;;11.89;40.77;101102.31;5004206;28;20038;-81
2021/03/27 12:18:39;;;;;;;5.43;0.90;;;;;;;11.92;40.52;101109.31;4987062;28;20067;-80
2021/03/27 12:21:13;;;;;;;5.28;1.23;;;;;;;11.89;39.87;101107.63;5009117;28;20058;-79
2021/03/27 12:23:59;;;;;;;5.43;1.08;;;;;;;11.83;40.65;101112.31;4993582;28;20105;-78
2021/03/27 12:27:12;;;;;;;4.18;1.35;;;;;;;11.87;41.25;101119.22;4958785;29;20040;-79
2021/03/27 12:29:43;;;;;;;3.38;1.20;;;;;;;12.03;39.96;101117.69;4948315;29;20051;-83
2021/03/27 12:32:29;;;;;;;4.60;1.20;;;;;;;12.11;40.36;101120.03;4954069;29;20059;-80
2021/03/27 12:35:20;;;;;;;5.05;1.00;;;;;;;12.12;40.49;101114.63;4953155;29;20078;-82
2021/03/27 12:38:18;;;;;;;4.20;1.10;;;;;;;12.06;40.97;101114.91;4963587;29;20054;-82
2021/03/27 12:41:11;;;;;;;4.18;1.30;;;;;;;12.23;41.47;101128.34;4946082;29;20079;-84
2021/03/27 12:43:47;;;;;;;7.45;1.42;;;;;;;12.18;41.57;101132.97;4954774;28;20059;-84
2021/03/27 12:46:31;;;;;;;4.50;1.23;;;;;;;11.90;42.62;101127.94;4993914;28;20058;-80
2021/03/27 12:49:17;;;;;;;5.00;1.17;;;;;;;11.86;42.90;101126.34;4968534;28;20078;-81
2021/03/27 12:52:05;;;;;;;3.60;1.10;;;;;;;11.92;42.14;101136.72;4978037;28;20050;-81
2021/03/27 12:54:43;;;;;;;4.05;1.00;;;;;;;11.80;42.53;101131.03;4977703;28;20474;-82